M I D A S
Marine Information and Data Acquisition System
Tripno 1850 of the Zeeleeuw from 2010-03-30 06:50:56 to 2010-03-30 15:46:48
Back to CruiseResearch ActivitiesStationsMapUnderway DataData graphs

EquipmentUnitsComment
TimeDGPSUTC
LatitudeDGPSDM.mWGS84
LongitudeDGPSDM.mWGS84
HeadingGyrodeg 
SOGDGPSknotsSpeed over ground
COGDGPSdegCourse over ground
DepthEcho soundermeters200 kHz
Missing or incorrect values are displayed as -999
Navigation data collected by the RV Zeeleeuw from 2010-03-30 06:47:28 to 2010-03-30 16:28:13
                                                                                    Next 1000 lines
Time Latitude Longitude Heading SOG COG Depth
2010-03-30 06:47:38 51°13.662 2°55.956 114.1 1 299 -999
2010-03-30 06:47:43 51°13.663 2°55.953 114.2 1.5 296 -999
2010-03-30 06:47:48 51°13.664 2°55.949 114 2 296 4.5
2010-03-30 06:47:52 51°13.666 2°55.946 113.5 2.4 297 4.7
2010-03-30 06:47:57 51°13.667 2°55.94 113.5 2.7 295 -999
2010-03-30 06:48:03 51°13.67 2°55.933 113.4 3 296 -999
2010-03-30 06:48:08 51°13.671 2°55.927 113.8 3.3 296 -999
2010-03-30 06:48:13 51°13.674 2°55.92 113.9 3.5 298 -999
2010-03-30 06:48:17 51°13.675 2°55.914 113.7 3.6 296 -999
2010-03-30 06:48:23 51°13.678 2°55.905 113.5 3.8 297 -999
2010-03-30 06:48:28 51°13.681 2°55.897 113.3 3.9 296 -999
2010-03-30 06:48:33 51°13.683 2°55.889 112.4 3.9 295 -999
2010-03-30 06:48:38 51°13.685 2°55.881 110.4 3.9 293 -999
2010-03-30 06:48:43 51°13.687 2°55.874 107.8 3.8 290 -999
2010-03-30 06:48:48 51°13.688 2°55.866 104.9 3.8 286 -999
2010-03-30 06:48:53 51°13.69 2°55.857 102.3 3.8 284 -999
2010-03-30 06:48:57 51°13.691 2°55.851 100.4 3.8 282 -999
2010-03-30 06:49:03 51°13.692 2°55.841 98.9 3.8 281 -999
2010-03-30 06:49:08 51°13.693 2°55.833 97.3 3.8 280 -999
2010-03-30 06:49:13 51°13.694 2°55.825 95.6 3.8 279 -999
2010-03-30 06:49:18 51°13.694 2°55.816 94.3 3.9 277 -999
2010-03-30 06:49:23 51°13.695 2°55.807 92.1 4 275 7.8
2010-03-30 06:49:28 51°13.695 2°55.798 90.2 4 274 -999
2010-03-30 06:49:33 51°13.695 2°55.79 88.4 4 272 -999
2010-03-30 06:49:38 51°13.695 2°55.781 86.5 4 271 -999
2010-03-30 06:49:43 51°13.695 2°55.772 84.3 3.9 269 -999
2010-03-30 06:49:48 51°13.695 2°55.764 81.5 3.8 266 -999
2010-03-30 06:49:53 51°13.694 2°55.756 79.1 3.6 265 -999
2010-03-30 06:49:57 51°13.694 2°55.75 77.1 3.4 262 9.2
2010-03-30 06:50:02 51°13.693 2°55.743 75.5 3.2 260 9.2
2010-03-30 06:50:07 51°13.692 2°55.737 73.7 2.6 260 9.6
2010-03-30 06:50:12 51°13.692 2°55.732 71.6 1.9 259 9.6
2010-03-30 06:50:17 51°13.692 2°55.73 68.5 1.3 265 9.5
2010-03-30 06:50:21 51°13.692 2°55.729 64.6 0.5 282 9.6
2010-03-30 06:50:26 51°13.692 2°55.728 59.5 0.5 330 9.7
2010-03-30 06:50:31 51°13.693 2°55.728 53.6 0.7 7 9.9
2010-03-30 06:50:36 51°13.695 2°55.729 48.1 1 12 10.2
2010-03-30 06:50:41 51°13.696 2°55.729 42.2 1.2 14 9.9
2010-03-30 06:50:45 51°13.697 2°55.73 36.1 1.4 17 9.7
2010-03-30 06:50:50 51°13.7 2°55.731 30 1.7 11 9.6
2010-03-30 06:50:55 51°13.702 2°55.731 23.7 1.9 8 9.5
2010-03-30 06:51:00 51°13.705 2°55.731 17.5 2.2 2 9.4
2010-03-30 06:51:05 51°13.709 2°55.731 11 2.4 358 9.4
2010-03-30 06:51:09 51°13.711 2°55.731 4.4 2.6 353 9.5
2010-03-30 06:51:14 51°13.715 2°55.73 357.9 2.8 348 9.4
2010-03-30 06:51:19 51°13.719 2°55.728 351.4 3.1 342 9.4
2010-03-30 06:51:24 51°13.724 2°55.725 344.8 3.4 338 9.2
2010-03-30 06:51:29 51°13.728 2°55.722 341.4 3.7 336 9.1
2010-03-30 06:51:34 51°13.733 2°55.718 338.3 4 333 9
2010-03-30 06:51:39 51°13.738 2°55.713 336.1 4.2 331 8.9
2010-03-30 06:51:44 51°13.744 2°55.709 334.7 4.4 331 8.6
2010-03-30 06:51:49 51°13.749 2°55.704 334 4.7 330 8.3
2010-03-30 06:51:54 51°13.755 2°55.698 333.6 5 330 8.3
2010-03-30 06:51:59 51°13.761 2°55.692 333.4 5.3 330 8.4
2010-03-30 06:52:04 51°13.768 2°55.686 333.4 5.6 331 8.2
2010-03-30 06:52:09 51°13.775 2°55.679 333.6 5.8 331 8.2
2010-03-30 06:52:14 51°13.783 2°55.673 333.8 6.1 331 8.2
2010-03-30 06:52:19 51°13.79 2°55.667 334 6.2 332 8.3
2010-03-30 06:52:24 51°13.798 2°55.66 334.7 6.3 333 8.3
2010-03-30 06:52:29 51°13.806 2°55.654 336 6.3 335 8.3
2010-03-30 06:52:34 51°13.814 2°55.648 336.9 6.3 336 8.3
2010-03-30 06:52:39 51°13.821 2°55.643 337.4 6.1 338 8.3
2010-03-30 06:52:44 51°13.829 2°55.638 339.4 6 341 8.3
2010-03-30 06:52:49 51°13.837 2°55.635 343.5 5.9 346 8.3
2010-03-30 06:52:54 51°13.845 2°55.632 348.4 5.8 349 8.3
2010-03-30 06:52:59 51°13.853 2°55.631 353.3 5.7 354 7.9
2010-03-30 06:53:04 51°13.861 2°55.631 357.7 5.6 356 7.8
2010-03-30 06:53:09 51°13.869 2°55.63 359.7 5.5 356 7.6
2010-03-30 06:53:14 51°13.877 2°55.63 0.2 5.5 356 7.5
2010-03-30 06:53:19 51°13.884 2°55.629 359.6 5.5 355 7.6
2010-03-30 06:53:24 51°13.892 2°55.628 358.2 5.5 354 8
2010-03-30 06:53:29 51°13.899 2°55.626 356.7 5.5 353 8.3
2010-03-30 06:53:34 51°13.907 2°55.624 355.5 5.5 352 8.4
2010-03-30 06:53:39 51°13.914 2°55.622 354.5 5.5 351 8.5
2010-03-30 06:53:44 51°13.922 2°55.62 353.6 5.6 350 8.3
2010-03-30 06:53:49 51°13.93 2°55.618 352.6 5.7 349 8.4
2010-03-30 06:53:53 51°13.936 2°55.615 350.2 5.8 345 8.3
2010-03-30 06:53:59 51°13.945 2°55.611 347.5 6 344 8.2
2010-03-30 06:54:04 51°13.953 2°55.606 344.9 6.1 341 8.3
2010-03-30 06:54:09 51°13.961 2°55.601 342.7 6.2 340 8.5
2010-03-30 06:54:14 51°13.969 2°55.596 340.7 6.3 338 8.2
2010-03-30 06:54:20 51°13.979 2°55.589 339.3 6.4 337 8.4
2010-03-30 06:54:24 51°13.986 2°55.584 337.6 6.6 334 8.1
2010-03-30 06:54:29 51°13.994 2°55.578 335.7 6.8 333 8.3
2010-03-30 06:54:35 51°14.005 2°55.569 334 7 332 8
2010-03-30 06:54:39 51°14.011 2°55.563 332.5 7.1 330 7.9
2010-03-30 06:54:44 51°14.02 2°55.555 331.3 7.2 329 7.9
2010-03-30 06:54:49 51°14.028 2°55.546 330.2 7.3 328 7.9
2010-03-30 06:54:54 51°14.037 2°55.537 329.4 7.5 328 8
2010-03-30 06:54:59 51°14.046 2°55.528 329.4 7.7 328 8.4
2010-03-30 06:55:04 51°14.056 2°55.519 329 7.9 326 8.1
2010-03-30 06:55:09 51°14.065 2°55.508 327.3 8 324 8.1
2010-03-30 06:55:14 51°14.074 2°55.498 326 8.2 325 8.2
2010-03-30 06:55:20 51°14.085 2°55.485 326 8.3 325 8.3
2010-03-30 06:55:24 51°14.093 2°55.477 326.7 8.4 326 8.3
2010-03-30 06:55:29 51°14.102 2°55.466 326.8 8.5 325 8.5
2010-03-30 06:55:34 51°14.112 2°55.455 326.2 8.6 324 8.4
2010-03-30 06:55:39 51°14.122 2°55.444 325.9 8.7 325 8.5
2010-03-30 06:55:44 51°14.132 2°55.433 326 8.9 326 8.5
2010-03-30 06:55:49 51°14.142 2°55.422 326 9 325 8.5
2010-03-30 06:55:54 51°14.152 2°55.41 325.7 9.2 324 8.5
2010-03-30 06:55:59 51°14.163 2°55.398 325.7 9.3 324 8.5
2010-03-30 06:56:04 51°14.173 2°55.386 325.6 9.4 324 7.5
2010-03-30 06:56:09 51°14.184 2°55.374 325.4 9.5 324 8.4
2010-03-30 06:56:14 51°14.195 2°55.361 325.8 9.6 325 8.4
2010-03-30 06:56:19 51°14.206 2°55.349 325.6 9.7 323 7.7
2010-03-30 06:56:24 51°14.217 2°55.336 325.6 9.8 324 8.3
2010-03-30 06:56:29 51°14.228 2°55.323 325.7 9.9 324 8.3
2010-03-30 06:56:34 51°14.239 2°55.31 325.8 10 324 8.3
2010-03-30 06:56:39 51°14.25 2°55.297 325.7 10 323 8.2
2010-03-30 06:56:44 51°14.261 2°55.284 325.7 10 324 8
2010-03-30 06:56:49 51°14.272 2°55.27 325 10.1 322 7.9
2010-03-30 06:56:54 51°14.283 2°55.257 324.7 10.1 323 8
2010-03-30 06:56:59 51°14.295 2°55.244 325.3 10.1 324 7.9
2010-03-30 06:57:04 51°14.306 2°55.23 325.4 10.1 323 7.8
2010-03-30 06:57:09 51°14.317 2°55.217 325.7 10.2 324 7.7
2010-03-30 06:57:14 51°14.329 2°55.204 326.8 10.2 326 5.6
2010-03-30 06:57:19 51°14.341 2°55.191 327.3 10.4 326 8
2010-03-30 06:57:24 51°14.353 2°55.179 327.7 10.4 327 8.2
2010-03-30 06:57:29 51°14.365 2°55.166 328.9 10.5 328 8
2010-03-30 06:57:34 51°14.377 2°55.154 329.7 10.5 328 8.4
2010-03-30 06:57:39 51°14.39 2°55.141 329.8 10.6 327 8.2
2010-03-30 06:57:44 51°14.402 2°55.129 329.6 10.6 328 8.2
2010-03-30 06:57:49 51°14.415 2°55.116 329.6 10.6 328 8.4
2010-03-30 06:57:54 51°14.427 2°55.104 329.9 10.6 328 8.4
2010-03-30 06:57:59 51°14.439 2°55.091 329.9 10.6 328 8.4
2010-03-30 06:58:04 51°14.452 2°55.078 330.1 10.7 327 8.6
2010-03-30 06:58:09 51°14.464 2°55.066 329.8 10.7 328 9.1
2010-03-30 06:58:14 51°14.477 2°55.053 330 10.8 329 9.1
2010-03-30 06:58:19 51°14.49 2°55.041 331 10.8 330 9
2010-03-30 06:58:24 51°14.503 2°55.029 331.4 10.7 329 8.9
2010-03-30 06:58:29 51°14.515 2°55.016 331.1 10.7 326 9.2
2010-03-30 06:58:34 51°14.527 2°55.001 328.8 10.7 319 9.6
2010-03-30 06:58:39 51°14.537 2°54.984 324.1 10.7 315 10.1
2010-03-30 06:58:44 51°14.547 2°54.967 320.7 10.8 313 10.1
2010-03-30 06:58:49 51°14.557 2°54.949 319.1 10.8 312 10
2010-03-30 06:58:54 51°14.567 2°54.931 317.9 10.9 310 10.1
2010-03-30 06:58:59 51°14.577 2°54.912 316 10.9 308 10
2010-03-30 06:59:04 51°14.585 2°54.892 313.6 10.9 305 10
2010-03-30 06:59:09 51°14.594 2°54.872 310.9 11 303 9.8
2010-03-30 06:59:14 51°14.601 2°54.85 307.8 11.1 298 9.7
2010-03-30 06:59:19 51°14.607 2°54.828 303.9 11.2 293 10.7
2010-03-30 06:59:24 51°14.613 2°54.804 299.5 11.3 289 8
2010-03-30 06:59:29 51°14.617 2°54.78 295 11.3 286 8
2010-03-30 06:59:34 51°14.62 2°54.755 290.6 11.4 282 8.1
2010-03-30 06:59:39 51°14.623 2°54.73 287.1 11.6 279 8.2
2010-03-30 06:59:44 51°14.625 2°54.704 284.3 11.8 277 10.4
2010-03-30 06:59:49 51°14.626 2°54.678 281 12 274 10.4
2010-03-30 06:59:54 51°14.625 2°54.65 276.2 12.3 267 8.2
2010-03-30 06:59:59 51°14.624 2°54.623 271.6 12.4 266 8.1
2010-03-30 07:00:05 51°14.621 2°54.591 268.1 12.4 261 8
2010-03-30 07:00:09 51°14.618 2°54.569 264.4 12.5 258 8
2010-03-30 07:00:14 51°14.614 2°54.543 259.9 12.6 253 8
2010-03-30 07:00:19 51°14.608 2°54.516 255 12.8 250 8
2010-03-30 07:00:24 51°14.601 2°54.49 250.4 13 246 8.1
2010-03-30 07:00:29 51°14.594 2°54.463 249.4 13.1 250 8
2010-03-30 07:00:34 51°14.587 2°54.436 250.2 13.4 248 8.1
2010-03-30 07:00:39 51°14.58 2°54.408 249 13.6 247 8
2010-03-30 07:00:44 51°14.572 2°54.381 248.2 13.6 246 8
2010-03-30 07:00:49 51°14.565 2°54.353 247.2 13.7 245 8
2010-03-30 07:00:54 51°14.556 2°54.326 246.2 13.8 245 7.9
2010-03-30 07:00:59 51°14.548 2°54.298 245.2 13.9 243 7.9
2010-03-30 07:01:04 51°14.539 2°54.271 244.7 14 244 8
2010-03-30 07:01:09 51°14.53 2°54.244 242.8 14 240 7.9
2010-03-30 07:01:14 51°14.52 2°54.217 241.5 14 241 8
2010-03-30 07:01:19 51°14.51 2°54.19 240.6 14 239 7.8
2010-03-30 07:01:24 51°14.5 2°54.164 239.6 14.1 239 7.9
2010-03-30 07:01:29 51°14.49 2°54.137 238.9 14.2 239 7.6
2010-03-30 07:01:34 51°14.479 2°54.111 238.2 14.2 237 7.6
2010-03-30 07:01:39 51°14.469 2°54.084 237.4 14.1 237 5.6
2010-03-30 07:01:44 51°14.458 2°54.059 237.3 14.1 236 7.6
2010-03-30 07:01:49 51°14.447 2°54.033 236.7 14.1 237 7.7
2010-03-30 07:01:53 51°14.438 2°54.012 236.5 14.2 236 7.7
2010-03-30 07:01:59 51°14.426 2°53.98 236.5 14.2 237 7.4
2010-03-30 07:02:04 51°14.414 2°53.954 236.5 14.2 236 5.6
2010-03-30 07:02:09 51°14.404 2°53.928 236.4 14.2 237 7.4
2010-03-30 07:02:14 51°14.393 2°53.902 237 14.2 237 7.5
2010-03-30 07:02:19 51°14.382 2°53.875 237.2 14.2 238 7.5
2010-03-30 07:02:24 51°14.372 2°53.849 237.6 14.3 238 7.5
2010-03-30 07:02:29 51°14.361 2°53.822 237.9 14.3 238 5.6
2010-03-30 07:02:33 51°14.353 2°53.801 238.2 14.3 238 7.5
2010-03-30 07:02:39 51°14.34 2°53.769 238.2 14.3 237 7.6
2010-03-30 07:02:44 51°14.33 2°53.742 237.9 14.4 238 7.5
2010-03-30 07:02:49 51°14.319 2°53.715 237.7 14.4 237 7.5
2010-03-30 07:02:53 51°14.31 2°53.694 237.5 14.4 238 -999
2010-03-30 07:02:59 51°14.297 2°53.662 238 14.4 237 7.5
2010-03-30 07:03:04 51°14.286 2°53.635 237.3 14.5 237 7.6
2010-03-30 07:03:09 51°14.275 2°53.609 237.6 14.4 237 5.6
2010-03-30 07:03:14 51°14.265 2°53.582 237.4 14.4 237 7.6
2010-03-30 07:03:19 51°14.254 2°53.555 237.9 14.4 238 7.7
2010-03-30 07:03:24 51°14.243 2°53.528 238.2 14.5 237 7.8
2010-03-30 07:03:29 51°14.233 2°53.501 238.6 14.5 239 5.6
2010-03-30 07:03:34 51°14.222 2°53.473 239.1 14.5 239 7.7
2010-03-30 07:03:39 51°14.212 2°53.445 239.2 14.6 240 7.7
2010-03-30 07:03:44 51°14.201 2°53.418 239.7 14.6 239 5.7
2010-03-30 07:03:49 51°14.191 2°53.39 239.7 14.6 239 7.8
2010-03-30 07:03:53 51°14.182 2°53.368 239.3 14.7 239 7.9
2010-03-30 07:03:59 51°14.169 2°53.335 239.3 14.7 238 8
2010-03-30 07:04:04 51°14.159 2°53.307 239.3 14.8 238 7.9
2010-03-30 07:04:09 51°14.148 2°53.279 239.2 14.8 238 8
2010-03-30 07:04:14 51°14.137 2°53.252 239.2 14.8 238 8
2010-03-30 07:04:19 51°14.126 2°53.223 239.8 14.7 239 8
2010-03-30 07:04:24 51°14.115 2°53.196 239.6 14.8 238 8.2
2010-03-30 07:04:29 51°14.105 2°53.167 240.3 14.8 241 8.3
2010-03-30 07:04:34 51°14.094 2°53.14 240.3 14.8 238 8.3
2010-03-30 07:04:39 51°14.084 2°53.112 239.6 14.8 239 8.3
2010-03-30 07:04:44 51°14.073 2°53.084 239.6 14.9 238 8.2
2010-03-30 07:04:49 51°14.062 2°53.056 239.3 14.9 239 8.3
2010-03-30 07:04:54 51°14.051 2°53.028 239.5 14.9 238 8.3
2010-03-30 07:04:59 51°14.041 2°53 239.6 14.9 239 8.3
2010-03-30 07:05:04 51°14.03 2°52.971 240.5 14.9 241 8.3
2010-03-30 07:05:09 51°14.02 2°52.942 241.8 14.9 241 8.4
2010-03-30 07:05:14 51°14.01 2°52.913 242.2 14.9 242 8.4
2010-03-30 07:05:19 51°14.001 2°52.883 242.9 14.9 243 8.4
2010-03-30 07:05:24 51°13.991 2°52.854 243.6 14.9 242 8.4
2010-03-30 07:05:29 51°13.982 2°52.825 243.6 14.9 243 8.5
2010-03-30 07:05:34 51°13.972 2°52.796 243.6 15 241 8.5
2010-03-30 07:05:39 51°13.962 2°52.767 242.7 15 241 8.5
2010-03-30 07:05:44 51°13.951 2°52.739 241.8 15 240 8.5
2010-03-30 07:05:49 51°13.941 2°52.71 241 15 240 8.5
2010-03-30 07:05:54 51°13.93 2°52.681 240.4 15 239 8.5
2010-03-30 07:05:59 51°13.92 2°52.652 240.1 15 239 8.5
2010-03-30 07:06:04 51°13.909 2°52.624 239.6 15 239 8.6
2010-03-30 07:06:09 51°13.898 2°52.596 239 15 238 8.5
2010-03-30 07:06:14 51°13.887 2°52.568 238.9 15 238 8.6
2010-03-30 07:06:19 51°13.876 2°52.539 239.1 15 239 8.5
2010-03-30 07:06:24 51°13.865 2°52.512 239.1 15 238 8.6
2010-03-30 07:06:29 51°13.854 2°52.483 239 15.1 239 8.6
2010-03-30 07:06:34 51°13.843 2°52.454 239.6 15.1 239 8.6
2010-03-30 07:06:39 51°13.833 2°52.425 240.3 15 241 8.6
2010-03-30 07:06:44 51°13.822 2°52.397 240.8 15 239 8.7
2010-03-30 07:06:49 51°13.812 2°52.368 240.8 15 241 8.5
2010-03-30 07:06:54 51°13.802 2°52.339 241.1 15.1 240 8.7
2010-03-30 07:06:59 51°13.792 2°52.31 241.1 15.1 241 8.6
2010-03-30 07:07:04 51°13.781 2°52.281 241.8 15.1 241 8.5
2010-03-30 07:07:09 51°13.771 2°52.252 241.5 15.1 240 8.7
2010-03-30 07:07:14 51°13.761 2°52.223 241.3 14.9 240 8.6
2010-03-30 07:07:19 51°13.75 2°52.196 240.6 14.7 238 8.7
2010-03-30 07:07:24 51°13.74 2°52.167 240.3 14.6 240 8.7
2010-03-30 07:07:29 51°13.73 2°52.14 240.3 14.3 238 8.6
2010-03-30 07:07:33 51°13.721 2°52.119 239 14.2 239 8.7
2010-03-30 07:07:39 51°13.709 2°52.087 239.2 14.1 238 8.8
2010-03-30 07:07:44 51°13.699 2°52.061 239.3 13.8 238 8.8
2010-03-30 07:07:49 51°13.689 2°52.035 238.8 13.6 238 8.9
2010-03-30 07:07:53 51°13.681 2°52.015 239.1 13.2 239 9
2010-03-30 07:07:59 51°13.67 2°51.986 239.4 12.9 239 8.9
2010-03-30 07:08:04 51°13.661 2°51.962 239.5 12.7 239 9.1
2010-03-30 07:08:09 51°13.652 2°51.938 239.7 12.6 240 9
2010-03-30 07:08:14 51°13.643 2°51.915 239.8 12.4 238 9.1
2010-03-30 07:08:19 51°13.635 2°51.891 239.8 12.3 240 9
2010-03-30 07:08:25 51°13.624 2°51.863 240.6 12.2 240 9.1
2010-03-30 07:08:29 51°13.618 2°51.844 240.8 12.2 240 9.1
2010-03-30 07:08:34 51°13.609 2°51.821 240.7 12 240 9.1
2010-03-30 07:08:39 51°13.601 2°51.798 241.1 11.9 240 9.1
2010-03-30 07:08:44 51°13.593 2°51.776 241 11.9 240 9.1
2010-03-30 07:08:49 51°13.585 2°51.753 241.3 11.9 240 9.2
2010-03-30 07:08:54 51°13.577 2°51.73 241.2 11.8 241 9.1
2010-03-30 07:08:59 51°13.569 2°51.708 241.3 11.5 241 9.1
2010-03-30 07:09:04 51°13.561 2°51.686 241.3 11.1 241 9.3
2010-03-30 07:09:09 51°13.554 2°51.666 241.5 10.8 241 9.2
2010-03-30 07:09:14 51°13.547 2°51.646 241.1 10.2 240 9.2
2010-03-30 07:09:19 51°13.54 2°51.627 240.1 9.8 239 9.3
2010-03-30 07:09:24 51°13.533 2°51.61 239.4 9.5 238 9.3
2010-03-30 07:09:29 51°13.526 2°51.593 238.8 9.1 237 9.3
2010-03-30 07:09:34 51°13.519 2°51.576 238 8.9 238 9.3
2010-03-30 07:09:39 51°13.513 2°51.56 237.4 8.6 237 9.3
2010-03-30 07:09:44 51°13.506 2°51.545 237.3 8.4 237 9.4
2010-03-30 07:09:49 51°13.5 2°51.529 237 8 237 9.4
2010-03-30 07:09:54 51°13.494 2°51.515 237 7.7 236 9.4
2010-03-30 07:09:59 51°13.488 2°51.501 236.4 7.4 236 9.4
2010-03-30 07:10:04 51°13.483 2°51.489 235.4 7.1 234 9.4
2010-03-30 07:10:09 51°13.477 2°51.476 234 6.8 235 9.3
2010-03-30 07:10:14 51°13.472 2°51.465 232 6.2 232 9.3
2010-03-30 07:10:19 51°13.467 2°51.455 229.7 5.6 231 9.4
2010-03-30 07:10:24 51°13.462 2°51.447 227 5 230 9.4
2010-03-30 07:10:29 51°13.458 2°51.439 225.8 4.6 231 9.4
2010-03-30 07:10:34 51°13.455 2°51.432 225 4 231 9.4
2010-03-30 07:10:39 51°13.452 2°51.426 224.9 3.4 232 9.5
2010-03-30 07:10:44 51°13.449 2°51.421 225 2.8 234 9.5
2010-03-30 07:10:49 51°13.448 2°51.417 225.1 2.3 238 9.4
2010-03-30 07:10:54 51°13.446 2°51.414 225 1.6 236 9.5
2010-03-30 07:10:59 51°13.446 2°51.411 224.7 1.1 255 9.4
2010-03-30 07:11:04 51°13.446 2°51.41 225.8 0.5 259 9.5
2010-03-30 07:11:09 51°13.446 2°51.409 227.2 0.4 308 9.5
2010-03-30 07:11:14 51°13.446 2°51.408 228.7 0.3 302 9.5
2010-03-30 07:11:20 51°13.446 2°51.408 230.3 0.4 296 -999
2010-03-30 07:11:25 51°13.446 2°51.407 232.4 0.3 260 -999
2010-03-30 07:11:31 51°13.446 2°51.406 233.7 0.4 279 -999
2010-03-30 07:11:37 51°13.446 2°51.405 235 0.3 249 -999
2010-03-30 07:11:42 51°13.446 2°51.405 236 0.4 263 -999
2010-03-30 07:11:48 51°13.446 2°51.404 236.9 0.4 240 -999
2010-03-30 07:11:53 51°13.446 2°51.403 237.7 0.5 272 4.8
2010-03-30 07:11:57 51°13.446 2°51.402 238.5 0.4 226 9.4
2010-03-30 07:12:02 51°13.446 2°51.401 238.9 0.5 271 5.3
2010-03-30 07:12:07 51°13.445 2°51.4 239.4 0.5 229 5.4
2010-03-30 07:12:12 51°13.445 2°51.399 239.8 0.5 260 4.9
2010-03-30 07:12:17 51°13.445 2°51.398 240.3 0.5 237 4.8
2010-03-30 07:12:21 51°13.444 2°51.397 240.6 0.5 252 9.5
2010-03-30 07:12:26 51°13.444 2°51.396 241.1 0.5 243 9.5
2010-03-30 07:12:31 51°13.444 2°51.395 241.2 0.5 244 9.5
2010-03-30 07:12:36 51°13.444 2°51.394 241.3 0.6 240 9.5
2010-03-30 07:12:41 51°13.443 2°51.393 241.3 0.6 236 9.5
2010-03-30 07:12:45 51°13.443 2°51.392 241.5 0.6 253 9.4
2010-03-30 07:12:50 51°13.442 2°51.391 241.5 0.6 241 9.6
2010-03-30 07:12:55 51°13.442 2°51.39 241.8 0.6 252 9.5
2010-03-30 07:13:00 51°13.442 2°51.388 242 0.7 241 9.6
2010-03-30 07:13:05 51°13.441 2°51.387 242.4 0.7 255 5
2010-03-30 07:13:09 51°13.441 2°51.386 242.5 0.7 240 5.1
2010-03-30 07:13:14 51°13.441 2°51.384 242.9 0.7 252 5
2010-03-30 07:13:19 51°13.44 2°51.383 243.2 0.7 243 5.1
2010-03-30 07:13:24 51°13.44 2°51.381 243.5 0.7 247 5
2010-03-30 07:13:29 51°13.44 2°51.38 243.6 0.7 247 9.5
2010-03-30 07:13:33 51°13.439 2°51.379 243.9 0.8 243 9.6
2010-03-30 07:13:39 51°13.439 2°51.377 244.1 0.8 244 4.9
2010-03-30 07:13:44 51°13.438 2°51.375 244.2 0.8 243 4.8
2010-03-30 07:13:49 51°13.438 2°51.374 244.4 0.8 247 5.1
2010-03-30 07:13:54 51°13.437 2°51.372 244.5 0.8 241 9.6
2010-03-30 07:13:59 51°13.437 2°51.37 244.7 0.8 246 9.6
2010-03-30 07:14:04 51°13.436 2°51.369 244.7 0.9 244 9.6
2010-03-30 07:14:09 51°13.436 2°51.367 245 0.8 246 9.5
2010-03-30 07:14:14 51°13.435 2°51.365 245.1 0.8 250 9.5
2010-03-30 07:14:19 51°13.435 2°51.363 245.4 0.9 244 9.6
2010-03-30 07:14:24 51°13.434 2°51.362 245.8 0.9 250 9.5
2010-03-30 07:14:29 51°13.434 2°51.36 246.1 0.9 243 9.6
2010-03-30 07:14:34 51°13.433 2°51.358 246.6 0.9 249 9.5
2010-03-30 07:14:39 51°13.433 2°51.356 246.9 0.9 246 9.5
2010-03-30 07:14:44 51°13.433 2°51.354 247.5 0.9 255 9.4
2010-03-30 07:14:49 51°13.432 2°51.352 248 0.9 239 9.6
2010-03-30 07:14:54 51°13.432 2°51.35 248.6 1 259 9.5
2010-03-30 07:14:59 51°13.431 2°51.348 249.3 1 238 9.5
2010-03-30 07:15:04 51°13.431 2°51.346 249.6 1 257 9.5
2010-03-30 07:15:09 51°13.43 2°51.344 250.4 1 241 9.6
2010-03-30 07:15:14 51°13.43 2°51.342 250.8 1 257 9.5
2010-03-30 07:15:19 51°13.429 2°51.34 251.3 1 240 9.7
2010-03-30 07:15:24 51°13.429 2°51.338 251.9 1 257 9.5
2010-03-30 07:15:29 51°13.428 2°51.336 252.3 1 243 9.5
2010-03-30 07:15:34 51°13.427 2°51.334 252.7 1 250 9.5
2010-03-30 07:15:40 51°13.427 2°51.331 253 1 248 9.5
2010-03-30 07:15:44 51°13.426 2°51.33 253.4 1.1 247 9.5
2010-03-30 07:15:49 51°13.426 2°51.327 253.8 1 252 9.5
2010-03-30 07:15:54 51°13.425 2°51.325 254.2 1.1 248 9.6
2010-03-30 07:15:59 51°13.425 2°51.323 254.6 1.1 247 9.6
2010-03-30 07:16:04 51°13.424 2°51.321 255 1.1 249 9.6
2010-03-30 07:16:09 51°13.424 2°51.318 255.3 1.1 250 9.6
2010-03-30 07:16:14 51°13.423 2°51.316 255.8 1.1 248 9.5
2010-03-30 07:16:19 51°13.422 2°51.314 256.1 1.1 249 9.6
2010-03-30 07:16:24 51°13.422 2°51.312 256.4 1.1 248 9.6
2010-03-30 07:16:29 51°13.421 2°51.309 256.9 1.1 250 9.6
2010-03-30 07:16:34 51°13.421 2°51.307 257.2 1.1 247 9.6
2010-03-30 07:16:39 51°13.42 2°51.305 257.5 1.2 250 9.6
2010-03-30 07:16:44 51°13.419 2°51.302 257.8 1.2 247 9.5
2010-03-30 07:16:49 51°13.419 2°51.3 258.2 1.2 251 9.5
2010-03-30 07:16:54 51°13.418 2°51.297 258.7 1.2 246 9.5
2010-03-30 07:16:59 51°13.418 2°51.295 259 1.2 251 9.6
2010-03-30 07:17:04 51°13.417 2°51.293 259.4 1.2 249 9.5
2010-03-30 07:17:09 51°13.416 2°51.29 259.9 1.2 251 9.5
2010-03-30 07:17:14 51°13.416 2°51.288 260.3 1.2 248 9.6
2010-03-30 07:17:19 51°13.415 2°51.285 260.5 1.2 251 9.6
2010-03-30 07:17:24 51°13.415 2°51.282 260.9 1.2 252 9.5
2010-03-30 07:17:29 51°13.414 2°51.28 261.1 1.2 252 9.6
2010-03-30 07:17:34 51°13.413 2°51.277 261.4 1.2 253 9.6
2010-03-30 07:17:39 51°13.413 2°51.275 261.7 1.3 247 9.7
2010-03-30 07:17:44 51°13.412 2°51.272 262.2 1.3 250 9.6
2010-03-30 07:17:49 51°13.412 2°51.269 262.5 1.2 254 9.6
2010-03-30 07:17:54 51°13.411 2°51.267 262.8 1.3 246 9.7
2010-03-30 07:17:59 51°13.411 2°51.264 263.2 1.3 255 9.6
2010-03-30 07:18:04 51°13.41 2°51.261 263.5 1.3 247 9.6
2010-03-30 07:18:09 51°13.409 2°51.258 263.6 1.3 252 9.7
2010-03-30 07:18:14 51°13.409 2°51.256 263.9 1.3 248 9.7
2010-03-30 07:18:19 51°13.408 2°51.253 264 1.3 253 9.7
2010-03-30 07:18:24 51°13.407 2°51.25 264.2 1.3 249 9.6
2010-03-30 07:18:29 51°13.407 2°51.248 264.3 1.3 250 9.6
2010-03-30 07:18:34 51°13.406 2°51.245 264.5 1.4 246 9.7
2010-03-30 07:18:39 51°13.406 2°51.242 264.6 1.3 257 9.6
2010-03-30 07:18:44 51°13.405 2°51.239 264.6 1.4 244 9.7
2010-03-30 07:18:49 51°13.404 2°51.236 264.8 1.3 256 9.6
2010-03-30 07:18:54 51°13.404 2°51.234 264.9 1.4 248 9.7
2010-03-30 07:18:59 51°13.403 2°51.231 264.9 1.3 254 9.7
2010-03-30 07:19:04 51°13.403 2°51.228 264.9 1.4 252 9.6
2010-03-30 07:19:09 51°13.402 2°51.225 264.8 1.4 251 9.6
2010-03-30 07:19:14 51°13.401 2°51.222 264.8 1.4 254 9.6
2010-03-30 07:19:19 51°13.401 2°51.219 264.8 1.4 251 9.6
2010-03-30 07:19:24 51°13.4 2°51.216 264.9 1.4 251 9.7
2010-03-30 07:19:29 51°13.4 2°51.213 265 1.4 252 9.5
2010-03-30 07:19:34 51°13.399 2°51.21 265 1.4 250 9.7
2010-03-30 07:19:39 51°13.399 2°51.207 265 1.4 255 9.6
2010-03-30 07:19:44 51°13.398 2°51.204 265 1.4 251 9.7
2010-03-30 07:19:49 51°13.398 2°51.201 265 1.4 255 9.6
2010-03-30 07:19:54 51°13.397 2°51.199 265 1.4 256 9.6
2010-03-30 07:20:00 51°13.396 2°51.195 265 1.4 252 9.7
2010-03-30 07:20:04 51°13.396 2°51.192 265 1.4 254 9.6
2010-03-30 07:20:09 51°13.395 2°51.189 265 1.5 252 9.6
2010-03-30 07:20:14 51°13.395 2°51.186 264.8 1.4 255 9.7
2010-03-30 07:20:19 51°13.394 2°51.183 264.8 1.5 252 9.7
2010-03-30 07:20:24 51°13.393 2°51.18 264.7 1.5 256 9.6
2010-03-30 07:20:29 51°13.393 2°51.177 264.5 1.5 252 9.7
2010-03-30 07:20:34 51°13.392 2°51.174 264.4 1.4 258 9.6
2010-03-30 07:20:39 51°13.392 2°51.171 264.3 1.5 250 9.7
2010-03-30 07:20:44 51°13.391 2°51.168 264 1.5 257 9.7
2010-03-30 07:20:49 51°13.39 2°51.165 263.7 1.5 253 9.7
2010-03-30 07:20:54 51°13.39 2°51.161 263.6 1.5 252 9.7
2010-03-30 07:20:59 51°13.389 2°51.158 263.4 1.5 255 9.7
2010-03-30 07:21:04 51°13.389 2°51.155 263.1 1.5 251 9.7
2010-03-30 07:21:09 51°13.388 2°51.152 262.7 1.5 256 9.6
2010-03-30 07:21:14 51°13.387 2°51.149 262.4 1.5 252 9.7
2010-03-30 07:21:19 51°13.387 2°51.145 262.1 1.5 253 9.8
2010-03-30 07:21:24 51°13.386 2°51.142 261.7 1.5 253 9.7
2010-03-30 07:21:29 51°13.385 2°51.139 261.4 1.5 251 9.7
2010-03-30 07:21:34 51°13.385 2°51.135 260.9 1.6 251 9.8
2010-03-30 07:21:39 51°13.384 2°51.132 260.6 1.6 252 9.8
2010-03-30 07:21:44 51°13.384 2°51.129 260.3 1.5 254 9.7
2010-03-30 07:21:49 51°13.383 2°51.125 259.8 1.6 248 9.7
2010-03-30 07:21:54 51°13.382 2°51.122 259.3 1.7 254 9.7
2010-03-30 07:21:59 51°13.381 2°51.118 258.5 2 250 9.8
2010-03-30 07:22:04 51°13.38 2°51.113 256.7 2.2 252 9.7
2010-03-30 07:22:09 51°13.379 2°51.109 253.7 2.4 245 9.8
2010-03-30 07:22:14 51°13.378 2°51.103 251 2.7 248 9.7
2010-03-30 07:22:20 51°13.375 2°51.096 245.8 3 241 9.7
2010-03-30 07:22:24 51°13.374 2°51.091 240.5 3.2 240 9.7
2010-03-30 07:22:29 51°13.371 2°51.085 234.9 3.4 236 9.7
2010-03-30 07:22:34 51°13.368 2°51.079 230.4 3.6 233 9.7
2010-03-30 07:22:39 51°13.365 2°51.072 224.8 3.8 227 9.8
2010-03-30 07:22:44 51°13.361 2°51.067 219.1 3.9 224 9.8
2010-03-30 07:22:49 51°13.357 2°51.061 212.5 3.9 220 9.7
2010-03-30 07:22:54 51°13.352 2°51.056 207.8 4 216 9.7
2010-03-30 07:22:59 51°13.347 2°51.051 202.2 4 211 9.8
2010-03-30 07:23:04 51°13.343 2°51.047 196.9 4.1 207 9.7
2010-03-30 07:23:09 51°13.337 2°51.044 190.4 4.1 203 9.8
2010-03-30 07:23:14 51°13.332 2°51.041 185.2 4.1 198 9.7
2010-03-30 07:23:19 51°13.326 2°51.039 180.7 4 194 9.7
2010-03-30 07:23:24 51°13.321 2°51.037 175.4 4 189 9.7
2010-03-30 07:23:29 51°13.316 2°51.036 169.6 3.9 184 9.8
2010-03-30 07:23:34 51°13.31 2°51.036 164 3.8 180 9.6
2010-03-30 07:23:39 51°13.305 2°51.037 157.2 3.7 174 9.7
2010-03-30 07:23:44 51°13.3 2°51.038 152.5 3.7 170 9.7
2010-03-30 07:23:49 51°13.295 2°51.04 147.2 3.6 165 9.6
2010-03-30 07:23:54 51°13.291 2°51.043 141.2 3.5 160 9.7
2010-03-30 07:23:59 51°13.287 2°51.046 134.4 3.3 154 9.6
2010-03-30 07:24:04 51°13.283 2°51.05 128.6 3.2 148 9.7
2010-03-30 07:24:09 51°13.279 2°51.054 122.7 3.1 143 9.6
2010-03-30 07:24:14 51°13.276 2°51.058 118 2.9 135 9.6
2010-03-30 07:24:19 51°13.274 2°51.063 110.4 2.8 127 9.6
2010-03-30 07:24:24 51°13.272 2°51.068 105.5 2.6 121 9.5
2010-03-30 07:24:29 51°13.271 2°51.073 98.1 2.5 113 9.6
2010-03-30 07:24:34 51°13.27 2°51.079 93.1 2.4 101 9.5
2010-03-30 07:24:40 51°13.27 2°51.085 85.2 2.3 95 9.6
2010-03-30 07:24:44 51°13.27 2°51.088 80 2.1 78 9.5
2010-03-30 07:24:49 51°13.271 2°51.093 71.7 2.2 74 9.6
2010-03-30 07:24:54 51°13.273 2°51.097 66.5 2.2 56 9.5
2010-03-30 07:24:59 51°13.275 2°51.101 59.6 2.2 50 9.6
2010-03-30 07:25:04 51°13.278 2°51.104 53.1 2.4 37 9.6
2010-03-30 07:25:09 51°13.28 2°51.107 45.1 2.6 30 9.6
2010-03-30 07:25:14 51°13.284 2°51.11 41.2 2.8 27 9.6
2010-03-30 07:25:19 51°13.288 2°51.113 38 3 26 9.6
2010-03-30 07:25:24 51°13.292 2°51.116 36.3 3.4 25 9.5
2010-03-30 07:25:29 51°13.296 2°51.12 36.3 3.8 29 9.5
2010-03-30 07:25:34 51°13.301 2°51.124 37.4 4.1 30 9.7
2010-03-30 07:25:39 51°13.306 2°51.129 39.3 4.4 34 9.6
2010-03-30 07:25:44 51°13.311 2°51.135 40.9 4.8 33 9.6
2010-03-30 07:25:49 51°13.317 2°51.141 41.5 5.1 35 9.6
2010-03-30 07:25:54 51°13.323 2°51.149 42 5.5 36 9.6
2010-03-30 07:25:59 51°13.33 2°51.157 43.8 5.8 41 9.6
2010-03-30 07:26:04 51°13.336 2°51.166 46 6 43 9.6
2010-03-30 07:26:09 51°13.342 2°51.175 47.7 6.2 44 9.6
2010-03-30 07:26:14 51°13.348 2°51.186 49.3 6.5 47 9.6
2010-03-30 07:26:19 51°13.354 2°51.197 50.8 6.6 49 9.6
2010-03-30 07:26:24 51°13.36 2°51.209 53.1 6.7 52 9.5
2010-03-30 07:26:29 51°13.366 2°51.22 54.7 6.8 53 9.6
2010-03-30 07:26:34 51°13.371 2°51.233 56.1 7 55 9.5
2010-03-30 07:26:39 51°13.376 2°51.246 57.3 7.1 56 9.5
2010-03-30 07:26:44 51°13.382 2°51.259 58.6 7.1 58 9.6
2010-03-30 07:26:49 51°13.387 2°51.273 59.6 7.2 59 9.6
2010-03-30 07:26:54 51°13.392 2°51.287 60.3 7.3 58 9.4
2010-03-30 07:26:59 51°13.397 2°51.301 61 7.3 62 9.6
2010-03-30 07:27:04 51°13.402 2°51.315 61.7 7.4 59 9.5
2010-03-30 07:27:09 51°13.407 2°51.329 61.8 7.4 62 9.5
2010-03-30 07:27:14 51°13.411 2°51.344 62.5 7.4 61 9.6
2010-03-30 07:27:19 51°13.416 2°51.358 62.6 7.5 62 9.5
2010-03-30 07:27:24 51°13.421 2°51.373 62.8 7.4 61 9.5
2010-03-30 07:27:29 51°13.426 2°51.387 62.2 7.5 61 9.4
2010-03-30 07:27:34 51°13.432 2°51.401 60.8 7.5 58 9.5
2010-03-30 07:27:39 51°13.438 2°51.415 59.8 7.5 58 9.5
2010-03-30 07:27:44 51°13.443 2°51.429 58.9 7.5 56 9.5
2010-03-30 07:27:49 51°13.449 2°51.443 57.7 7.6 55 9.4
2010-03-30 07:27:54 51°13.455 2°51.457 56.9 7.6 55 9.5
2010-03-30 07:27:59 51°13.462 2°51.47 56.2 7.6 53 9.4
2010-03-30 07:28:04 51°13.468 2°51.483 55.2 7.6 53 9.5
2010-03-30 07:28:09 51°13.474 2°51.497 55.1 7.6 52 9.6
2010-03-30 07:28:14 51°13.481 2°51.509 54.2 7.4 50 9.4
2010-03-30 07:28:19 51°13.488 2°51.521 53.2 6.9 49 9.5
2010-03-30 07:28:24 51°13.494 2°51.532 52.1 6.5 48 9.6
2010-03-30 07:28:29 51°13.5 2°51.541 50.7 6.1 45 9.5
2010-03-30 07:28:34 51°13.505 2°51.549 48.5 5.5 42 9.5
2010-03-30 07:28:39 51°13.511 2°51.557 46.3 5.1 38 9.5
2010-03-30 07:28:44 51°13.517 2°51.563 43.2 4.7 33 9.5
2010-03-30 07:28:49 51°13.522 2°51.567 39.9 4.4 29 9.5
2010-03-30 07:28:54 51°13.527 2°51.571 36.2 4 23 9.6
2010-03-30 07:28:59 51°13.532 2°51.574 32.1 3.7 18 9.7
2010-03-30 07:29:04 51°13.536 2°51.576 27.9 3.4 10 9.5
2010-03-30 07:29:09 51°13.541 2°51.576 23.6 3.2 5 9.6
2010-03-30 07:29:14 51°13.545 2°51.576 19.7 2.9 358 9.6
2010-03-30 07:29:19 51°13.549 2°51.575 15.6 2.7 352 9.6
2010-03-30 07:29:24 51°13.552 2°51.574 11.2 2.5 344 9.6
2010-03-30 07:29:29 51°13.555 2°51.572 6.7 2.3 338 9.6
2010-03-30 07:29:34 51°13.558 2°51.57 2.3 2.1 329 9.7
2010-03-30 07:29:39 51°13.56 2°51.567 357.8 2 321 9.6
2010-03-30 07:29:44 51°13.562 2°51.564 353.4 1.9 313 9.6
2010-03-30 07:29:49 51°13.563 2°51.561 349.1 1.9 308 9.7
2010-03-30 07:29:54 51°13.565 2°51.557 344.8 1.7 299 9.7
2010-03-30 07:29:59 51°13.565 2°51.554 340.4 1.7 293 9.8
2010-03-30 07:30:04 51°13.566 2°51.551 336.4 1.7 290 9.7
2010-03-30 07:30:09 51°13.567 2°51.547 333.1 1.7 287 9.7
2010-03-30 07:30:14 51°13.568 2°51.543 330.3 1.7 286 9.8
2010-03-30 07:30:19 51°13.568 2°51.54 327.8 1.8 282 9.7
2010-03-30 07:30:24 51°13.568 2°51.536 325.3 1.7 282 9.8
2010-03-30 07:30:29 51°13.569 2°51.532 323.3 1.8 280 9.8
2010-03-30 07:30:34 51°13.569 2°51.528 321.6 1.8 280 9.8
2010-03-30 07:30:39 51°13.57 2°51.525 320.1 1.8 279 9.8
2010-03-30 07:30:44 51°13.57 2°51.521 318.7 1.8 278 9.8
2010-03-30 07:30:49 51°13.57 2°51.517 317.5 1.8 278 9.8
2010-03-30 07:30:54 51°13.571 2°51.512 316.3 1.8 277 9.8
2010-03-30 07:30:59 51°13.571 2°51.508 315.3 1.8 276 9.8
2010-03-30 07:31:04 51°13.571 2°51.504 314.4 1.9 274 9.8
2010-03-30 07:31:09 51°13.571 2°51.5 313.4 1.8 276 9.9
2010-03-30 07:31:14 51°13.571 2°51.495 312.7 1.8 274 9.8
2010-03-30 07:31:19 51°13.571 2°51.491 311.6 1.9 273 9.9
2010-03-30 07:31:24 51°13.571 2°51.487 310.8 1.8 273 9.8
2010-03-30 07:31:29 51°13.571 2°51.483 310.1 1.9 272 9.9
2010-03-30 07:31:34 51°13.571 2°51.479 309.3 1.9 273 9.8
2010-03-30 07:31:39 51°13.572 2°51.475 308.6 1.9 271 9.9
2010-03-30 07:31:44 51°13.572 2°51.471 308 1.8 273 9.8
2010-03-30 07:31:49 51°13.572 2°51.467 307.5 1.9 270 9.9
2010-03-30 07:31:54 51°13.572 2°51.463 306.8 1.8 271 9.9
2010-03-30 07:31:59 51°13.572 2°51.459 306.3 1.8 271 9.9
2010-03-30 07:32:04 51°13.572 2°51.455 305.7 1.9 271 9.8
2010-03-30 07:32:09 51°13.572 2°51.45 304.9 1.9 270 10
2010-03-30 07:32:14 51°13.572 2°51.446 304.5 1.8 271 9.9
2010-03-30 07:32:19 51°13.572 2°51.442 303.9 1.9 269 9.8
2010-03-30 07:32:24 51°13.572 2°51.438 303.1 1.8 270 9.9
2010-03-30 07:32:29 51°13.572 2°51.434 302.7 1.8 268 10
2010-03-30 07:32:34 51°13.572 2°51.43 302 1.8 271 9.8
2010-03-30 07:32:39 51°13.572 2°51.426 301.4 1.9 267 9.9
2010-03-30 07:32:44 51°13.572 2°51.422 300.7 1.8 270 9.9
2010-03-30 07:32:49 51°13.572 2°51.418 300.2 1.9 268 9.9
2010-03-30 07:32:54 51°13.572 2°51.414 299.6 1.8 269 9.9
2010-03-30 07:32:59 51°13.572 2°51.41 299.1 1.8 269 9.8
2010-03-30 07:33:04 51°13.572 2°51.405 298.4 1.8 267 10
2010-03-30 07:33:09 51°13.572 2°51.402 297.8 1.8 271 9.8
2010-03-30 07:33:14 51°13.571 2°51.397 297.3 1.8 265 9.9
2010-03-30 07:33:19 51°13.571 2°51.393 296.4 1.8 270 9.9
2010-03-30 07:33:24 51°13.571 2°51.389 296.1 1.9 267 9.9
2010-03-30 07:33:29 51°13.571 2°51.385 295.4 1.8 270 9.8
2010-03-30 07:33:34 51°13.571 2°51.381 294.6 1.8 266 9.9
2010-03-30 07:33:39 51°13.571 2°51.377 294.1 1.8 268 9.9
2010-03-30 07:33:44 51°13.571 2°51.373 293.2 1.8 265 9.9
2010-03-30 07:33:49 51°13.571 2°51.369 292.5 1.8 269 9.8
2010-03-30 07:33:54 51°13.57 2°51.365 291.9 1.8 265 9.8
2010-03-30 07:33:59 51°13.57 2°51.361 290.7 1.8 268 9.9
2010-03-30 07:34:04 51°13.57 2°51.357 290.2 1.8 267 9.9
2010-03-30 07:34:09 51°13.57 2°51.354 289 1.8 267 9.9
2010-03-30 07:34:14 51°13.57 2°51.35 288.2 1.8 262 9.9
2010-03-30 07:34:19 51°13.569 2°51.346 287.5 1.7 263 9.9
2010-03-30 07:34:24 51°13.569 2°51.342 287 1.6 263 9.9
2010-03-30 07:34:29 51°13.569 2°51.339 286.6 1.6 261 9.9
2010-03-30 07:34:34 51°13.569 2°51.335 286.3 1.6 262 9.9
2010-03-30 07:34:39 51°13.568 2°51.332 286.1 1.5 259 9.9
2010-03-30 07:34:44 51°13.568 2°51.329 286 1.5 259 9.9
2010-03-30 07:34:49 51°13.567 2°51.326 285.8 1.5 257 9.9
2010-03-30 07:34:54 51°13.567 2°51.323 285.5 1.4 259 9.8
2010-03-30 07:34:59 51°13.566 2°51.32 285.1 1.4 254 9.9
2010-03-30 07:35:04 51°13.566 2°51.317 284.7 1.3 258 9.9
2010-03-30 07:35:09 51°13.565 2°51.314 284.5 1.3 253 9.9
2010-03-30 07:35:14 51°13.565 2°51.311 284.1 1.2 260 9.8
2010-03-30 07:35:19 51°13.564 2°51.309 283.8 1.3 249 9.9
2010-03-30 07:35:24 51°13.564 2°51.306 283.2 1.1 257 9.9
2010-03-30 07:35:29 51°13.563 2°51.304 283 1.2 246 9.9
2010-03-30 07:35:34 51°13.563 2°51.302 282.4 1 252 9.9
2010-03-30 07:35:39 51°13.563 2°51.3 282.1 1 244 9.8
2010-03-30 07:35:44 51°13.562 2°51.298 281.6 0.9 245 10
2010-03-30 07:35:49 51°13.562 2°51.296 281.5 0.9 243 9.9
2010-03-30 07:35:54 51°13.561 2°51.294 281.3 0.8 240 9.9
2010-03-30 07:35:59 51°13.56 2°51.293 281.3 0.8 242 10
2010-03-30 07:36:04 51°13.56 2°51.291 281.1 0.8 240 9.9
2010-03-30 07:36:09 51°13.559 2°51.29 280.9 0.8 243 9.9
2010-03-30 07:36:14 51°13.559 2°51.288 280.9 0.9 237 10
2010-03-30 07:36:19 51°13.558 2°51.287 280.6 0.8 247 9.9
2010-03-30 07:36:24 51°13.557 2°51.285 280.5 0.8 237 9.9
2010-03-30 07:36:29 51°13.557 2°51.284 280.4 0.7 243 10
2010-03-30 07:36:34 51°13.556 2°51.282 280.5 0.8 234 9.9
2010-03-30 07:36:39 51°13.556 2°51.281 280.5 0.8 239 10
2010-03-30 07:36:44 51°13.555 2°51.279 280.7 0.7 240 9.9
2010-03-30 07:36:49 51°13.555 2°51.278 280.6 0.8 238 9.9
2010-03-30 07:36:54 51°13.554 2°51.276 280.8 0.8 241 9.9
2010-03-30 07:36:59 51°13.554 2°51.275 280.8 0.8 240 9.9
2010-03-30 07:37:04 51°13.553 2°51.274 281.1 0.8 240 9.9
2010-03-30 07:37:09 51°13.553 2°51.272 281.4 0.8 243 10
2010-03-30 07:37:14 51°13.552 2°51.27 281.6 0.8 239 10
2010-03-30 07:37:19 51°13.552 2°51.269 281.9 0.8 243 9.9
2010-03-30 07:37:24 51°13.551 2°51.267 282.1 0.9 239 10
2010-03-30 07:37:29 51°13.55 2°51.266 282.4 0.8 243 10
2010-03-30 07:37:34 51°13.55 2°51.264 282.5 0.8 243 9.9
2010-03-30 07:37:39 51°13.549 2°51.263 282.9 0.8 246 10
2010-03-30 07:37:44 51°13.549 2°51.261 283 0.8 245 10
2010-03-30 07:37:49 51°13.548 2°51.26 283.2 0.8 242 10
2010-03-30 07:37:54 51°13.548 2°51.258 283.3 0.9 242 10
2010-03-30 07:38:00 51°13.547 2°51.256 283.6 0.8 246 10
2010-03-30 07:38:04 51°13.547 2°51.255 283.7 0.8 247 10
2010-03-30 07:38:09 51°13.546 2°51.253 283.8 0.8 244 10
2010-03-30 07:38:14 51°13.546 2°51.252 283.9 0.8 249 10
2010-03-30 07:38:19 51°13.545 2°51.25 283.9 0.9 244 9.9
2010-03-30 07:38:24 51°13.545 2°51.248 283.9 0.8 249 10
2010-03-30 07:38:29 51°13.545 2°51.246 283.9 1 250 10
2010-03-30 07:38:34 51°13.544 2°51.244 283.2 1.2 258 10
2010-03-30 07:38:39 51°13.544 2°51.241 282 1.5 256 10
2010-03-30 07:38:44 51°13.543 2°51.237 279.9 1.9 263 10
2010-03-30 07:38:49 51°13.543 2°51.232 275.6 2.3 258 9.9
2010-03-30 07:38:54 51°13.542 2°51.227 270.3 2.6 256 10
2010-03-30 07:38:59 51°13.541 2°51.22 264.3 2.9 252 10
2010-03-30 07:39:04 51°13.539 2°51.214 259.2 3.2 247 10
2010-03-30 07:39:09 51°13.537 2°51.207 251.6 3.5 243 9.9
2010-03-30 07:39:14 51°13.534 2°51.2 244.9 3.7 238 10
2010-03-30 07:39:19 51°13.531 2°51.193 238.4 3.9 233 10
2010-03-30 07:39:24 51°13.528 2°51.187 233.2 4 228 10
2010-03-30 07:39:29 51°13.524 2°51.18 225.4 4.1 224 10
2010-03-30 07:39:34 51°13.519 2°51.174 219.2 4.3 219 10
2010-03-30 07:39:39 51°13.514 2°51.169 212.7 4.4 212 10
2010-03-30 07:39:44 51°13.509 2°51.164 206.5 4.4 208 10
2010-03-30 07:39:49 51°13.503 2°51.16 200.3 4.6 205 10.1
2010-03-30 07:39:54 51°13.497 2°51.156 195.3 4.7 199 10
2010-03-30 07:39:59 51°13.49 2°51.153 189.5 4.9 196 10.1
2010-03-30 07:40:04 51°13.483 2°51.151 186.5 5 193 10
2010-03-30 07:40:09 51°13.476 2°51.149 182.1 5 189 10
2010-03-30 07:40:14 51°13.47 2°51.148 178.3 4.9 185 10.1
2010-03-30 07:40:19 51°13.463 2°51.148 172.6 4.8 180 10.1
2010-03-30 07:40:24 51°13.456 2°51.149 165.5 4.8 175 10.1
2010-03-30 07:40:29 51°13.45 2°51.151 159 4.7 170 10
2010-03-30 07:40:34 51°13.444 2°51.153 153 4.6 164 10
2010-03-30 07:40:39 51°13.438 2°51.157 147.7 4.5 157 10.1
2010-03-30 07:40:44 51°13.432 2°51.162 140.3 4.4 149 10
2010-03-30 07:40:49 51°13.428 2°51.168 132.4 4.3 140 9.9
2010-03-30 07:40:54 51°13.424 2°51.175 124.1 4.1 131 10
2010-03-30 07:40:59 51°13.421 2°51.182 115.8 4 120 9.9
2010-03-30 07:41:04 51°13.419 2°51.19 107.1 3.9 111 10
2010-03-30 07:41:09 51°13.418 2°51.199 98.7 3.9 102 9.9
2010-03-30 07:41:14 51°13.418 2°51.208 90.7 4.1 91 9.9
2010-03-30 07:41:19 51°13.418 2°51.217 84.2 4.2 84 9.9
2010-03-30 07:41:24 51°13.419 2°51.226 79.1 4.4 79 9.9
2010-03-30 07:41:29 51°13.421 2°51.236 73.4 4.5 72 9.9
2010-03-30 07:41:34 51°13.424 2°51.245 69.6 4.7 67 9.9
2010-03-30 07:41:39 51°13.427 2°51.255 64.8 4.9 59 9.8
2010-03-30 07:41:44 51°13.431 2°51.264 60.4 5 56 9.8
2010-03-30 07:41:49 51°13.436 2°51.273 57 5.2 52 9.9
2010-03-30 07:41:54 51°13.44 2°51.282 53.7 5.4 48 9.8
2010-03-30 07:41:59 51°13.446 2°51.291 50.9 5.5 46 9.8
2010-03-30 07:42:04 51°13.451 2°51.299 48.7 5.7 44 10
2010-03-30 07:42:09 51°13.457 2°51.308 47.3 5.8 43 9.9
2010-03-30 07:42:14 51°13.464 2°51.317 46.5 5.9 41 9.8
2010-03-30 07:42:19 51°13.47 2°51.326 45.8 6.1 42 9.9
2010-03-30 07:42:24 51°13.476 2°51.335 46.4 6.2 44 9.9
2010-03-30 07:42:29 51°13.482 2°51.345 47.8 6.2 46 9.9
2010-03-30 07:42:34 51°13.488 2°51.355 50.1 6.2 49 9.8
2010-03-30 07:42:39 51°13.493 2°51.366 52.5 6.2 54 9.9
2010-03-30 07:42:44 51°13.497 2°51.377 55.6 5.8 57 9.9
2010-03-30 07:42:49 51°13.5 2°51.388 60.8 5.3 65 9.8
2010-03-30 07:42:54 51°13.503 2°51.398 66.2 4.8 70 9.9
2010-03-30 07:42:59 51°13.504 2°51.408 69.9 4.5 77 9.9
2010-03-30 07:43:04 51°13.505 2°51.417 73.9 4.2 79 9.8
2010-03-30 07:43:09 51°13.506 2°51.426 78.2 4 86 10
2010-03-30 07:43:14 51°13.506 2°51.434 83.3 3.6 92 9.9
2010-03-30 07:43:19 51°13.505 2°51.441 86.9 3.4 98 9.9
2010-03-30 07:43:24 51°13.504 2°51.448 89.1 3.1 100 9.9
2010-03-30 07:43:29 51°13.503 2°51.455 90.9 2.9 104 9.9
2010-03-30 07:43:34 51°13.502 2°51.46 93.6 2.6 109 9.9
2010-03-30 07:43:39 51°13.501 2°51.465 96 2.4 115 9.9
2010-03-30 07:43:44 51°13.499 2°51.47 99.1 2.2 122 9.8
2010-03-30 07:43:49 51°13.497 2°51.473 102.3 2.1 129 9.9
2010-03-30 07:43:54 51°13.496 2°51.476 105.2 1.8 137 9.8
2010-03-30 07:43:59 51°13.494 2°51.478 109 1.7 143 9.9
2010-03-30 07:44:04 51°13.492 2°51.48 111.9 1.6 152 9.8
2010-03-30 07:44:09 51°13.49 2°51.481 115.5 1.6 161 9.9
2010-03-30 07:44:14 51°13.488 2°51.482 118.1 1.4 168 9.9
2010-03-30 07:44:19 51°13.486 2°51.482 120.9 1.4 175 9.9
2010-03-30 07:44:24 51°13.484 2°51.482 123.3 1.2 186 9.9
2010-03-30 07:44:29 51°13.482 2°51.482 125.8 1.2 196 9.8
2010-03-30 07:44:34 51°13.481 2°51.48 128.6 1.2 203 9.9
2010-03-30 07:44:39 51°13.479 2°51.479 130.9 1.2 207 9.9
2010-03-30 07:44:44 51°13.478 2°51.478 132.9 1.2 209 9.9
2010-03-30 07:44:49 51°13.477 2°51.477 134.6 1.3 210 9.9
2010-03-30 07:44:54 51°13.475 2°51.475 136.2 1.2 211 9.8
2010-03-30 07:44:59 51°13.474 2°51.474 137.6 1.3 212 9.9
2010-03-30 07:45:04 51°13.472 2°51.472 138.7 1.2 214 9.9
2010-03-30 07:45:09 51°13.471 2°51.471 140 1.3 216 9.8
2010-03-30 07:45:14 51°13.469 2°51.469 140.9 1.3 217 9.9
2010-03-30 07:45:19 51°13.468 2°51.467 141.9 1.3 217 9.8
2010-03-30 07:45:24 51°13.467 2°51.465 142.9 1.3 220 9.9
2010-03-30 07:45:29 51°13.465 2°51.464 143.8 1.3 221 9.9
2010-03-30 07:45:34 51°13.464 2°51.462 144.8 1.4 222 9.9
2010-03-30 07:45:39 51°13.462 2°51.459 145.5 1.4 225 9.9
2010-03-30 07:45:44 51°13.461 2°51.457 146.5 1.4 224 9.9
2010-03-30 07:45:49 51°13.46 2°51.456 147.2 1.3 224 9.8
2010-03-30 07:45:54 51°13.458 2°51.453 147.9 1.3 227 9.8
2010-03-30 07:45:59 51°13.457 2°51.451 148.5 1.4 229 9.9
2010-03-30 07:46:04 51°13.456 2°51.449 149 1.3 230 9.8
2010-03-30 07:46:09 51°13.455 2°51.447 149.7 1.3 229 9.9
2010-03-30 07:46:14 51°13.454 2°51.445 150.3 1.4 231 9.8
2010-03-30 07:46:19 51°13.453 2°51.443 150.8 1.3 230 9.9
2010-03-30 07:46:24 51°13.451 2°51.44 151.2 1.4 233 9.9
2010-03-30 07:46:29 51°13.45 2°51.438 151.8 1.3 232 9.9
2010-03-30 07:46:34 51°13.449 2°51.435 152.3 1.4 232 9.9
2010-03-30 07:46:39 51°13.448 2°51.433 152.5 1.3 233 9.8
2010-03-30 07:46:44 51°13.447 2°51.43 153.2 1.4 235 9.9
2010-03-30 07:46:49 51°13.446 2°51.428 153.4 1.4 235 9.9
2010-03-30 07:46:54 51°13.445 2°51.425 154 1.4 236 9.8
2010-03-30 07:46:59 51°13.444 2°51.423 154.3 1.4 236 10
2010-03-30 07:47:04 51°13.443 2°51.42 154.7 1.4 239 9.9
2010-03-30 07:47:09 51°13.442 2°51.417 155.2 1.4 239 9.9
2010-03-30 07:47:14 51°13.441 2°51.415 155.6 1.4 237 9.9
2010-03-30 07:47:19 51°13.44 2°51.413 155.9 1.4 240 9.9
2010-03-30 07:47:25 51°13.439 2°51.41 156.2 1.4 240 9.9
2010-03-30 07:47:29 51°13.438 2°51.407 156.6 1.4 240 9.9
2010-03-30 07:47:34 51°13.437 2°51.405 156.8 1.4 243 10
2010-03-30 07:47:39 51°13.436 2°51.402 157 1.4 242 10
2010-03-30 07:47:44 51°13.435 2°51.399 157.3 1.4 244 9.9
2010-03-30 07:47:49 51°13.434 2°51.396 157.4 1.5 244 10
2010-03-30 07:47:54 51°13.434 2°51.394 157.6 1.4 244 9.9
2010-03-30 07:47:59 51°13.433 2°51.391 157.8 1.5 245 9.9
2010-03-30 07:48:04 51°13.432 2°51.387 158 1.4 248 9.9
2010-03-30 07:48:09 51°13.431 2°51.384 158.3 1.5 247 9.8
2010-03-30 07:48:14 51°13.431 2°51.381 158.4 1.4 247 9.9
2010-03-30 07:48:19 51°13.43 2°51.378 158.6 1.5 247 10
2010-03-30 07:48:24 51°13.429 2°51.375 159 1.4 249 9.9
2010-03-30 07:48:29 51°13.428 2°51.372 159.4 1.5 250 10
2010-03-30 07:48:34 51°13.428 2°51.369 159.8 1.4 250 9.9
2010-03-30 07:48:39 51°13.427 2°51.366 160.3 1.5 251 10
2010-03-30 07:48:44 51°13.426 2°51.363 160.8 1.5 252 9.9
2010-03-30 07:48:49 51°13.426 2°51.359 161.3 1.5 252 9.9
2010-03-30 07:48:54 51°13.425 2°51.356 161.9 1.5 252 10
2010-03-30 07:48:59 51°13.425 2°51.353 162.5 1.5 254 9.9
2010-03-30 07:49:04 51°13.424 2°51.35 163 1.5 254 9.9
2010-03-30 07:49:09 51°13.423 2°51.347 163.5 1.5 254 10
2010-03-30 07:49:14 51°13.423 2°51.344 164.1 1.5 254 10
2010-03-30 07:49:19 51°13.422 2°51.341 164.7 1.5 253 9.9
2010-03-30 07:49:24 51°13.421 2°51.338 165.3 1.4 255 9.9
2010-03-30 07:49:29 51°13.421 2°51.335 165.8 1.5 256 10
2010-03-30 07:49:34 51°13.421 2°51.331 166.3 1.4 258 10
2010-03-30 07:49:39 51°13.42 2°51.328 166.8 1.5 258 10
2010-03-30 07:49:44 51°13.42 2°51.324 167.1 1.5 259 9.9
2010-03-30 07:49:49 51°13.419 2°51.321 167.7 1.5 258 9.9
2010-03-30 07:49:54 51°13.419 2°51.318 168.1 1.5 258 10
2010-03-30 07:49:59 51°13.419 2°51.316 168.5 1.5 259 10
2010-03-30 07:50:04 51°13.418 2°51.313 168.8 1.4 259 10.1
2010-03-30 07:50:09 51°13.417 2°51.31 169.2 1.5 260 10
2010-03-30 07:50:13 51°13.417 2°51.308 169.5 1.4 260 10
2010-03-30 07:50:19 51°13.417 2°51.304 169.9 1.5 262 10.1
2010-03-30 07:50:24 51°13.416 2°51.301 170.1 1.4 259 10
2010-03-30 07:50:29 51°13.416 2°51.298 170.6 1.5 261 10.1
2010-03-30 07:50:34 51°13.416 2°51.295 170.9 1.4 261 10.1
2010-03-30 07:50:39 51°13.415 2°51.291 171.4 1.5 261 10
2010-03-30 07:50:44 51°13.415 2°51.288 171.9 1.4 261 10.1
2010-03-30 07:50:49 51°13.415 2°51.285 172.4 1.5 262 10.1
2010-03-30 07:50:54 51°13.414 2°51.282 173 1.4 262 10
2010-03-30 07:50:59 51°13.414 2°51.279 173.6 1.5 262 10
2010-03-30 07:51:04 51°13.414 2°51.276 174.3 1.4 263 10.1
2010-03-30 07:51:09 51°13.413 2°51.272 174.9 1.5 262 10
2010-03-30 07:51:14 51°13.413 2°51.269 175.6 1.4 263 10
2010-03-30 07:51:19 51°13.413 2°51.266 176.5 1.4 264 10.1
2010-03-30 07:51:24 51°13.413 2°51.263 177.2 1.5 263 10
2010-03-30 07:51:29 51°13.413 2°51.26 178.2 1.4 263 10.1
2010-03-30 07:51:34 51°13.412 2°51.257 179.2 1.4 264 10
2010-03-30 07:51:39 51°13.412 2°51.253 180 1.4 264 10
2010-03-30 07:51:44 51°13.412 2°51.25 181.1 1.5 265 10
2010-03-30 07:51:49 51°13.412 2°51.247 182.1 1.4 264 10.1
2010-03-30 07:51:54 51°13.412 2°51.244 183.2 1.4 266 10
2010-03-30 07:51:59 51°13.411 2°51.241 184.1 1.4 266 10
2010-03-30 07:52:04 51°13.411 2°51.238 185.2 1.4 266 10.1
2010-03-30 07:52:09 51°13.411 2°51.235 186.7 1.4 266 10.1
2010-03-30 07:52:14 51°13.411 2°51.232 188.1 1.4 268 10
2010-03-30 07:52:19 51°13.411 2°51.229 189.4 1.3 266 10.1
2010-03-30 07:52:24 51°13.411 2°51.226 190.9 1.3 267 10
2010-03-30 07:52:29 51°13.411 2°51.223 192.3 1.3 267 10.2
2010-03-30 07:52:34 51°13.411 2°51.22 194 1.3 267 10.1
2010-03-30 07:52:39 51°13.41 2°51.218 195.2 1.4 269 10.1
2010-03-30 07:52:44 51°13.41 2°51.215 197.2 1.2 268 10.1
2010-03-30 07:52:49 51°13.41 2°51.212 199 1.3 268 10.1
2010-03-30 07:52:54 51°13.41 2°51.209 200.9 1.3 270 10
2010-03-30 07:52:59 51°13.41 2°51.206 202.9 1.2 268 10.2
2010-03-30 07:53:04 51°13.41 2°51.203 205.1 1.3 270 10.1
2010-03-30 07:53:09 51°13.41 2°51.201 207 1.2 268 10.2
2010-03-30 07:53:14 51°13.41 2°51.198 209.2 1.2 268 10.2
2010-03-30 07:53:19 51°13.41 2°51.196 211.3 1.2 268 10.1
2010-03-30 07:53:24 51°13.41 2°51.193 213.3 1.2 266 10.2
2010-03-30 07:53:29 51°13.41 2°51.191 215.3 1.1 264 10.1
2010-03-30 07:53:34 51°13.41 2°51.188 217.1 1.2 267 10.1
2010-03-30 07:53:39 51°13.41 2°51.186 218.6 1.1 265 10.1
2010-03-30 07:53:44 51°13.409 2°51.183 220.9 1.1 265 10.1
2010-03-30 07:53:49 51°13.409 2°51.181 222.7 1.1 262 10.2
2010-03-30 07:53:54 51°13.409 2°51.178 224.5 1.1 265 10.1
2010-03-30 07:53:59 51°13.409 2°51.176 226 1 259 10.2
2010-03-30 07:54:04 51°13.408 2°51.174 228 1.1 263 10.1
2010-03-30 07:54:09 51°13.408 2°51.171 229.6 1.1 260 10.1
2010-03-30 07:54:14 51°13.408 2°51.169 231.4 1.1 262 10.2
2010-03-30 07:54:19 51°13.408 2°51.167 232.6 1 258 10.2
2010-03-30 07:54:24 51°13.407 2°51.164 234.5 1.1 260 10.1
2010-03-30 07:54:29 51°13.407 2°51.162 236 1.1 258 10.1
2010-03-30 07:54:34 51°13.407 2°51.16 237.4 1 258 10.2
2010-03-30 07:54:39 51°13.406 2°51.157 238.6 1.1 256 10.2
2010-03-30 07:54:44 51°13.406 2°51.155 240 1.1 257 10.1
2010-03-30 07:54:49 51°13.406 2°51.153 241.3 1.1 257 10.1
2010-03-30 07:54:54 51°13.405 2°51.15 242.5 1.1 255 10.2
2010-03-30 07:54:59 51°13.405 2°51.148 243.6 1.1 255 10.2
2010-03-30 07:55:04 51°13.404 2°51.146 244.9 1.1 254 10.2
2010-03-30 07:55:09 51°13.404 2°51.143 245.6 1.1 255 10.2
2010-03-30 07:55:14 51°13.403 2°51.141 246.8 1.1 252 10.2
2010-03-30 07:55:19 51°13.403 2°51.139 247.6 1.1 252 10.2
2010-03-30 07:55:24 51°13.402 2°51.137 248.7 1.1 250 10.2
2010-03-30 07:55:29 51°13.402 2°51.134 249.2 1.1 254 10.1
2010-03-30 07:55:34 51°13.401 2°51.132 250.2 1.1 249 10.2
2010-03-30 07:55:39 51°13.401 2°51.13 250.9 1.1 256 10.2
2010-03-30 07:55:44 51°13.4 2°51.127 251.7 1.1 252 10.1
2010-03-30 07:55:49 51°13.4 2°51.125 252.4 1.1 252 10.2
2010-03-30 07:55:54 51°13.399 2°51.123 253 1.1 252 10.2
2010-03-30 07:55:59 51°13.399 2°51.12 253.5 1.1 252 10.2
2010-03-30 07:56:04 51°13.398 2°51.118 254.3 1.1 253 10.1
2010-03-30 07:56:09 51°13.398 2°51.116 254.9 1.1 250 10.3
2010-03-30 07:56:14 51°13.398 2°51.113 255.7 1.1 253 10.2
2010-03-30 07:56:19 51°13.397 2°51.111 256.3 1.1 252 10.3
2010-03-30 07:56:24 51°13.397 2°51.108 257 1.1 251 10.2
2010-03-30 07:56:29 51°13.396 2°51.106 257.7 1.2 255 10.1
2010-03-30 07:56:34 51°13.396 2°51.104 258.2 1.1 249 10.3
2010-03-30 07:56:39 51°13.395 2°51.101 258.8 1.1 257 10.2
2010-03-30 07:56:44 51°13.395 2°51.099 259.3 1.1 252 10.2
2010-03-30 07:56:49 51°13.395 2°51.096 260 1.1 253 10.3
2010-03-30 07:56:54 51°13.394 2°51.094 260.7 1.1 254 10.2
2010-03-30 07:56:59 51°13.394 2°51.092 260.9 1.1 252 10.2
2010-03-30 07:57:04 51°13.393 2°51.089 261.6 1.1 255 10.2
2010-03-30 07:57:09 51°13.393 2°51.087 262.2 1.1 252 10.3
2010-03-30 07:57:14 51°13.392 2°51.085 262.7 1.1 256 10.3
2010-03-30 07:57:19 51°13.392 2°51.082 263.1 1.1 254 10.1
2010-03-30 07:57:24 51°13.391 2°51.08 263.5 1.1 250 10.3
2010-03-30 07:57:29 51°13.391 2°51.078 263.9 1.1 258 10.2
2010-03-30 07:57:34 51°13.39 2°51.075 264.3 1.2 248 10.2
2010-03-30 07:57:39 51°13.39 2°51.073 264.7 1.1 253 10.3
2010-03-30 07:57:44 51°13.389 2°51.07 265.1 1.1 252 10.2
2010-03-30 07:57:49 51°13.389 2°51.068 265.3 1.1 258 10.2
2010-03-30 07:57:54 51°13.388 2°51.066 265.6 1.1 251 10.3
2010-03-30 07:57:59 51°13.388 2°51.063 266 1.1 255 10.3
2010-03-30 07:58:04 51°13.387 2°51.061 266.1 1.1 253 10.3
2010-03-30 07:58:09 51°13.387 2°51.059 266.5 1.1 253 10.4
2010-03-30 07:58:14 51°13.386 2°51.056 266.8 1.1 252 10.3
2010-03-30 07:58:19 51°13.386 2°51.054 267.1 1.1 254 10.3
2010-03-30 07:58:24 51°13.386 2°51.052 267.2 1.1 252 10.3
2010-03-30 07:58:29 51°13.385 2°51.049 267.5 1.1 254 10.4
2010-03-30 07:58:34 51°13.385 2°51.047 267.6 1.1 253 10.3
2010-03-30 07:58:39 51°13.384 2°51.045 267.9 1.1 257 10.2
2010-03-30 07:58:44 51°13.384 2°51.042 267.9 1.1 253 10.3
2010-03-30 07:58:49 51°13.383 2°51.04 268.1 1.1 254 10.4
2010-03-30 07:58:54 51°13.383 2°51.038 268.3 1.1 257 10.2
2010-03-30 07:58:59 51°13.383 2°51.035 268.3 1.1 251 10.3
2010-03-30 07:59:04 51°13.382 2°51.033 268.6 1.1 256 10.3
2010-03-30 07:59:09 51°13.382 2°51.03 268.6 1.1 254 10.3
2010-03-30 07:59:14 51°13.381 2°51.028 268.6 1.1 255 10.3
2010-03-30 07:59:19 51°13.381 2°51.026 268.7 1.1 251 10.3
2010-03-30 07:59:24 51°13.38 2°51.024 268.7 1.1 256 10.3
2010-03-30 07:59:29 51°13.38 2°51.021 268.7 1.1 248 10.4
2010-03-30 07:59:34 51°13.38 2°51.019 268.7 1.1 255 10.4
2010-03-30 07:59:39 51°13.379 2°51.017 268.7 1.1 254 10.3
2010-03-30 07:59:44 51°13.378 2°51.014 268.7 1.1 251 10.4
2010-03-30 07:59:49 51°13.378 2°51.012 268.7 1.1 257 10.3
2010-03-30 07:59:54 51°13.378 2°51.01 268.7 1.1 253 10.3
2010-03-30 07:59:59 51°13.377 2°51.008 268.7 1.1 249 10.5
2010-03-30 08:00:04 51°13.377 2°51.005 268.8 1.1 254 10.3
2010-03-30 08:00:09 51°13.376 2°51.003 268.7 1.1 251 10.3
2010-03-30 08:00:14 51°13.376 2°51.001 268.7 1.1 254 10.4
2010-03-30 08:00:19 51°13.375 2°50.999 268.7 1.1 251 10.4
2010-03-30 08:00:24 51°13.375 2°50.997 268.6 1.1 251 10.4
2010-03-30 08:00:29 51°13.375 2°50.995 268.6 1.1 255 10.3
2010-03-30 08:00:34 51°13.374 2°50.993 268.6 1.1 252 10.3
2010-03-30 08:00:39 51°13.374 2°50.99 268.6 1.1 254 10.5
2010-03-30 08:00:44 51°13.374 2°50.988 268.6 1.1 253 10.4
2010-03-30 08:00:49 51°13.373 2°50.986 268.6 1 253 10.4
2010-03-30 08:00:54 51°13.373 2°50.984 268.6 1.1 252 10.4
2010-03-30 08:00:59 51°13.373 2°50.982 268.6 1.1 256 10.3
2010-03-30 08:01:04 51°13.372 2°50.979 268.6 1.1 253 10.3
2010-03-30 08:01:09 51°13.372 2°50.977 268.5 1.1 253 10.3
2010-03-30 08:01:14 51°13.371 2°50.975 268.4 1.1 254 10.4
2010-03-30 08:01:19 51°13.371 2°50.973 268.4 1 254 10.4
2010-03-30 08:01:24 51°13.371 2°50.971 268.4 1 256 10.4
2010-03-30 08:01:29 51°13.37 2°50.968 268.3 1.1 252 10.5
2010-03-30 08:01:34 51°13.37 2°50.965 268.2 1.1 258 10.3
2010-03-30 08:01:39 51°13.37 2°50.963 268.1 1.1 251 10.5
2010-03-30 08:01:44 51°13.369 2°50.961 268 1.1 257 10.4
2010-03-30 08:01:49 51°13.369 2°50.959 267.8 1.1 250 10.5
2010-03-30 08:01:54 51°13.368 2°50.957 267.7 1 258 10.3
2010-03-30 08:01:59 51°13.368 2°50.954 267.4 1.1 249 10.4
2010-03-30 08:02:04 51°13.368 2°50.952 267.2 1 258 10.4
2010-03-30 08:02:09 51°13.367 2°50.949 267.2 1.1 254 10.4
2010-03-30 08:02:14 51°13.366 2°50.947 266.9 1.1 259 10.4
2010-03-30 08:02:19 51°13.366 2°50.945 266.7 1.1 251 10.3
2010-03-30 08:02:24 51°13.365 2°50.942 266.5 1 255 10.4
2010-03-30 08:02:29 51°13.365 2°50.94 266.1 1.1 249 10.4
2010-03-30 08:02:34 51°13.365 2°50.938 265.9 1 253 10.4
2010-03-30 08:02:39 51°13.364 2°50.936 265.6 1.1 251 10.4
2010-03-30 08:02:44 51°13.364 2°50.933 265.2 1 255 10.5
2010-03-30 08:02:49 51°13.363 2°50.931 265 1.1 251 10.5
2010-03-30 08:02:54 51°13.363 2°50.929 264.7 1.1 254 10.5
2010-03-30 08:02:59 51°13.362 2°50.927 264.5 1 252 10.4
2010-03-30 08:03:04 51°13.362 2°50.924 264.2 1.1 250 10.5
2010-03-30 08:03:09 51°13.361 2°50.922 264.1 1 254 10.4
2010-03-30 08:03:14 51°13.361 2°50.92 263.8 1.1 251 10.4
2010-03-30 08:03:19 51°13.36 2°50.918 263.6 1 251 10.5
2010-03-30 08:03:24 51°13.36 2°50.915 263.4 1 255 10.4
2010-03-30 08:03:29 51°13.359 2°50.913 263 1.1 251 10.5
2010-03-30 08:03:34 51°13.359 2°50.911 263 1 254 10.5
2010-03-30 08:03:39 51°13.359 2°50.909 262.7 1.1 249 10.5
2010-03-30 08:03:44 51°13.358 2°50.907 262.4 1 253 10.5
2010-03-30 08:03:49 51°13.358 2°50.905 262.2 1 252 10.5
2010-03-30 08:03:54 51°13.357 2°50.903 262.1 1 258 10.4
2010-03-30 08:03:59 51°13.356 2°50.901 261.9 1 250 10.5
2010-03-30 08:04:04 51°13.356 2°50.898 261.8 1 257 10.4
2010-03-30 08:04:09 51°13.356 2°50.896 261.8 1 251 10.4
2010-03-30 08:04:14 51°13.356 2°50.894 261.7 1 254 10.5
2010-03-30 08:04:19 51°13.355 2°50.892 261.6 1 256 10.4
2010-03-30 08:04:24 51°13.355 2°50.889 261.5 1 252 10.5
2010-03-30 08:04:29 51°13.354 2°50.887 261.7 1 256 10.5
2010-03-30 08:04:34 51°13.354 2°50.885 261.6 1 251 10.5
2010-03-30 08:04:39 51°13.354 2°50.883 261.7 1 256 10.4
2010-03-30 08:04:44 51°13.353 2°50.881 261.7 1 255 10.4
2010-03-30 08:04:49 51°13.353 2°50.879 261.8 1 253 10.5
2010-03-30 08:04:54 51°13.353 2°50.876 261.8 1 254 10.5
2010-03-30 08:04:59 51°13.352 2°50.874 261.8 1 251 10.5
2010-03-30 08:05:04 51°13.352 2°50.872 261.7 1 253 10.4
2010-03-30 08:05:09 51°13.351 2°50.87 261.5 1 254 10.4
2010-03-30 08:05:14 51°13.351 2°50.868 261.4 1 251 10.5
2010-03-30 08:05:19 51°13.351 2°50.866 261.4 1 256 10.4
2010-03-30 08:05:24 51°13.35 2°50.864 261.3 1 252 10.4
2010-03-30 08:05:29 51°13.35 2°50.861 261 1 252 10.6
2010-03-30 08:05:34 51°13.349 2°50.859 260.9 1 253 10.5
2010-03-30 08:05:39 51°13.349 2°50.857 260.7 1 252 10.5
2010-03-30 08:05:44 51°13.349 2°50.855 260.5 1 254 10.5
2010-03-30 08:05:49 51°13.348 2°50.853 260.3 1 253 10.6
2010-03-30 08:05:54 51°13.348 2°50.851 260 1 256 10.5
2010-03-30 08:05:59 51°13.347 2°50.849 259.8 1 250 10.6
2010-03-30 08:06:04 51°13.347 2°50.847 259.5 1 255 10.6
2010-03-30 08:06:09 51°13.347 2°50.845 259.3 1 250 10.5
2010-03-30 08:06:14 51°13.346 2°50.843 259.1 1 253 10.6
2010-03-30 08:06:19 51°13.346 2°50.841 258.9 1 254 10.5
2010-03-30 08:06:24 51°13.346 2°50.838 258.5 1 258 10.5
2010-03-30 08:06:29 51°13.345 2°50.836 258.5 1 250 10.6
2010-03-30 08:06:34 51°13.345 2°50.834 258.3 1.2 257 10.6
2010-03-30 08:06:39 51°13.344 2°50.831 257.7 1.5 251 10.6
2010-03-30 08:06:44 51°13.343 2°50.827 256 1.7 253 10.5
2010-03-30 08:06:49 51°13.342 2°50.823 253.1 1.9 249 10.5
2010-03-30 08:06:54 51°13.341 2°50.819 249.7 2.1 246 10.6
2010-03-30 08:06:59 51°13.34 2°50.814 246.1 2.3 244 10.5
2010-03-30 08:07:04 51°13.338 2°50.81 241.9 2.5 242 10.5
2010-03-30 08:07:09 51°13.337 2°50.805 237.6 2.6 238 10.6
2010-03-30 08:07:14 51°13.335 2°50.799 233.3 2.8 235 10.6
2010-03-30 08:07:19 51°13.332 2°50.794 229.3 2.9 231 10.6
2010-03-30 08:07:24 51°13.329 2°50.79 224.7 3 229 10.6
2010-03-30 08:07:29 51°13.326 2°50.785 220.3 3.1 225 10.5
2010-03-30 08:07:34 51°13.323 2°50.78 215.7 3.2 222 10.5
2010-03-30 08:07:39 51°13.32 2°50.776 211.3 3.2 218 10.6
2010-03-30 08:07:44 51°13.316 2°50.772 206.5 3.4 214 10.5
2010-03-30 08:07:49 51°13.312 2°50.768 201.5 3.4 210 10.5
2010-03-30 08:07:54 51°13.307 2°50.764 196.6 3.5 205 10.5
2010-03-30 08:07:59 51°13.303 2°50.762 191.7 3.6 201 10.5
2010-03-30 08:08:04 51°13.298 2°50.759 186.5 3.6 197 10.5
2010-03-30 08:08:09 51°13.293 2°50.757 181.5 3.6 194 10.6
2010-03-30 08:08:14 51°13.288 2°50.757 176.3 3.6 188 10.5
2010-03-30 08:08:19 51°13.283 2°50.756 171.3 3.6 185 10.5
2010-03-30 08:08:24 51°13.278 2°50.756 166.1 3.6 180 10.4
2010-03-30 08:08:29 51°13.273 2°50.756 162 3.7 178 10.5
2010-03-30 08:08:34 51°13.268 2°50.757 156.7 3.6 172 10.4
2010-03-30 08:08:39 51°13.263 2°50.759 150.6 3.7 168 10.5
2010-03-30 08:08:44 51°13.258 2°50.762 145.2 3.6 162 10.5
2010-03-30 08:08:49 51°13.254 2°50.765 139.8 3.5 160 10.5
2010-03-30 08:08:54 51°13.25 2°50.768 134.1 3.3 150 10.5
2010-03-30 08:08:59 51°13.246 2°50.772 128.1 3.2 146 10.4
2010-03-30 08:09:04 51°13.243 2°50.776 121.6 3 137 10.4
2010-03-30 08:09:09 51°13.24 2°50.781 115.3 2.9 133 10.4
2010-03-30 08:09:14 51°13.238 2°50.786 108.6 2.7 123 10.4
2010-03-30 08:09:19 51°13.236 2°50.792 103.2 2.6 112 10.4
2010-03-30 08:09:24 51°13.235 2°50.797 95 2.5 103 10.4
2010-03-30 08:09:29 51°13.235 2°50.802 88.1 2.4 96 10.4
2010-03-30 08:09:34 51°13.236 2°50.807 81.3 2.3 81 10.4
2010-03-30 08:09:39 51°13.237 2°50.811 74.3 2.3 72 10.4
2010-03-30 08:09:44 51°13.239 2°50.816 67.2 2.3 56 10.2
2010-03-30 08:09:49 51°13.241 2°50.82 60.2 2.3 53 10.4
2010-03-30 08:09:54 51°13.243 2°50.823 53.1 2.6 38 10.4
2010-03-30 08:09:59 51°13.247 2°50.827 47.1 2.8 34 10.4
2010-03-30 08:10:04 51°13.251 2°50.83 42.8 3.1 28 10.4
2010-03-30 08:10:09 51°13.254 2°50.833 40.4 3.3 28 10.4
2010-03-30 08:10:14 51°13.259 2°50.837 38.8 3.6 26 10.3
2010-03-30 08:10:19 51°13.263 2°50.841 39 3.8 30 10.3
2010-03-30 08:10:24 51°13.268 2°50.846 40.7 4 32 10.4
2010-03-30 08:10:29 51°13.273 2°50.851 42.9 4.1 36 10.3
2010-03-30 08:10:34 51°13.277 2°50.857 45.6 4.2 39 10.4
2010-03-30 08:10:39 51°13.282 2°50.863 47.6 4.1 42 10.3
2010-03-30 08:10:44 51°13.286 2°50.869 50.2 4 45 10.4